sensor_id;sensor_type;location;lat;lon;timestamp;P1;durP1;ratioP1;P2;durP2;ratioP2
58637;SDS011;54976;51.510;7.522;2023-04-01T00:02:51;2.50;;;0.60;;
58637;SDS011;54976;51.510;7.522;2023-04-01T00:05:52;2.45;;;0.60;;
58637;SDS011;54976;51.510;7.522;2023-04-01T00:08:53;4.53;;;0.70;;
58637;SDS011;54976;51.510;7.522;2023-04-01T00:11:54;9.25;;;0.70;;
58637;SDS011;54976;51.510;7.522;2023-04-01T00:14:54;3.17;;;0.52;;
58637;SDS011;54976;51.510;7.522;2023-04-01T00:17:55;4.25;;;0.98;;
58637;SDS011;54976;51.510;7.522;2023-04-01T00:20:56;1.60;;;0.65;;
58637;SDS011;54976;51.510;7.522;2023-04-01T00:23:56;3.42;;;1.02;;
58637;SDS011;54976;51.510;7.522;2023-04-01T00:26:57;2.40;;;0.55;;
58637;SDS011;54976;51.510;7.522;2023-04-01T00:29:58;1.45;;;0.50;;
58637;SDS011;54976;51.510;7.522;2023-04-01T00:32:58;2.38;;;0.60;;
58637;SDS011;54976;51.510;7.522;2023-04-01T00:36:06;3.72;;;0.63;;
58637;SDS011;54976;51.510;7.522;2023-04-01T00:39:11;5.03;;;0.70;;
58637;SDS011;54976;51.510;7.522;2023-04-01T00:42:11;4.30;;;0.80;;
58637;SDS011;54976;51.510;7.522;2023-04-01T00:48:51;0.93;;;0.60;;
58637;SDS011;54976;51.510;7.522;2023-04-01T00:51:55;3.55;;;0.65;;
58637;SDS011;54976;51.510;7.522;2023-04-01T00:54:59;1.27;;;0.43;;
58637;SDS011;54976;51.510;7.522;2023-04-01T00:58:02;1.00;;;0.60;;
58637;SDS011;54976;51.510;7.522;2023-04-01T01:01:06;1.20;;;0.57;;
58637;SDS011;54976;51.510;7.522;2023-04-01T01:10:33;4.00;;;0.60;;
58637;SDS011;54976;51.510;7.522;2023-04-01T01:13:50;2.85;;;0.60;;
58637;SDS011;54976;51.510;7.522;2023-04-01T01:17:02;2.20;;;0.50;;
58637;SDS011;54976;51.510;7.522;2023-04-01T01:23:46;0.65;;;0.30;;
58637;SDS011;54976;51.510;7.522;2023-04-01T01:33:41;1.67;;;0.60;;
58637;SDS011;54976;51.510;7.522;2023-04-01T01:36:52;1.30;;;0.52;;
58637;SDS011;54976;51.510;7.522;2023-04-01T01:39:58;2.20;;;0.55;;
58637;SDS011;54976;51.510;7.522;2023-04-01T01:43:06;2.58;;;0.50;;
58637;SDS011;54976;51.510;7.522;2023-04-01T01:46:11;1.27;;;0.75;;
58637;SDS011;54976;51.510;7.522;2023-04-01T01:49:14;5.82;;;0.70;;
58637;SDS011;54976;51.510;7.522;2023-04-01T01:52:17;4.72;;;0.50;;
58637;SDS011;54976;51.510;7.522;2023-04-01T01:55:28;2.80;;;0.80;;
58637;SDS011;54976;51.510;7.522;2023-04-01T01:58:38;2.95;;;0.68;;
58637;SDS011;54976;51.510;7.522;2023-04-01T02:01:43;4.22;;;0.60;;
58637;SDS011;54976;51.510;7.522;2023-04-01T02:04:47;1.25;;;0.70;;
58637;SDS011;54976;51.510;7.522;2023-04-01T02:08:51;2.05;;;0.70;;
58637;SDS011;54976;51.510;7.522;2023-04-01T02:11:24;2.50;;;0.65;;
58637;SDS011;54976;51.510;7.522;2023-04-01T02:17:43;0.65;;;0.40;;
58637;SDS011;54976;51.510;7.522;2023-04-01T02:20:45;4.22;;;0.70;;
58637;SDS011;54976;51.510;7.522;2023-04-01T02:23:46;3.25;;;0.80;;
58637;SDS011;54976;51.510;7.522;2023-04-01T02:26:48;2.10;;;0.60;;
58637;SDS011;54976;51.510;7.522;2023-04-01T02:29:51;1.55;;;0.50;;
58637;SDS011;54976;51.510;7.522;2023-04-01T02:32:52;1.10;;;0.40;;
58637;SDS011;54976;51.510;7.522;2023-04-01T02:35:55;1.42;;;0.50;;
58637;SDS011;54976;51.510;7.522;2023-04-01T02:38:55;5.60;;;0.50;;
58637;SDS011;54976;51.510;7.522;2023-04-01T02:42:00;4.72;;;0.38;;
58637;SDS011;54976;51.510;7.522;2023-04-01T02:45:01;1.80;;;0.40;;
58637;SDS011;54976;51.510;7.522;2023-04-01T02:48:03;0.80;;;0.40;;
58637;SDS011;54976;51.510;7.522;2023-04-01T02:51:04;1.88;;;0.40;;
58637;SDS011;54976;51.510;7.522;2023-04-01T02:54:04;1.20;;;0.50;;
58637;SDS011;54976;51.510;7.522;2023-04-01T02:57:05;1.40;;;0.40;;
58637;SDS011;54976;51.510;7.522;2023-04-01T03:00:06;1.42;;;0.40;;
58637;SDS011;54976;51.510;7.522;2023-04-01T03:03:12;2.90;;;0.50;;
58637;SDS011;54976;51.510;7.522;2023-04-01T03:06:14;0.35;;;0.35;;
58637;SDS011;54976;51.510;7.522;2023-04-01T03:09:15;1.65;;;0.50;;
58637;SDS011;54976;51.510;7.522;2023-04-01T03:12:16;2.92;;;0.30;;
58637;SDS011;54976;51.510;7.522;2023-04-01T03:15:17;1.25;;;0.43;;
58637;SDS011;54976;51.510;7.522;2023-04-01T03:18:17;0.90;;;0.32;;
58637;SDS011;54976;51.510;7.522;2023-04-01T03:21:20;1.58;;;0.30;;
58637;SDS011;54976;51.510;7.522;2023-04-01T03:24:22;3.83;;;0.60;;
58637;SDS011;54976;51.510;7.522;2023-04-01T03:27:23;3.03;;;0.40;;
58637;SDS011;54976;51.510;7.522;2023-04-01T03:30:23;0.52;;;0.30;;
58637;SDS011;54976;51.510;7.522;2023-04-01T03:33:24;2.30;;;0.40;;
58637;SDS011;54976;51.510;7.522;2023-04-01T03:36:24;4.30;;;0.43;;
58637;SDS011;54976;51.510;7.522;2023-04-01T03:39:25;1.55;;;0.32;;
58637;SDS011;54976;51.510;7.522;2023-04-01T03:42:26;0.50;;;0.30;;
58637;SDS011;54976;51.510;7.522;2023-04-01T03:45:26;0.75;;;0.30;;
58637;SDS011;54976;51.510;7.522;2023-04-01T03:48:27;1.35;;;0.28;;
58637;SDS011;54976;51.510;7.522;2023-04-01T03:51:27;1.45;;;0.30;;
58637;SDS011;54976;51.510;7.522;2023-04-01T03:54:28;0.47;;;0.30;;
58637;SDS011;54976;51.510;7.522;2023-04-01T03:57:30;1.25;;;0.50;;
58637;SDS011;54976;51.510;7.522;2023-04-01T04:00:31;0.45;;;0.30;;
58637;SDS011;54976;51.510;7.522;2023-04-01T04:03:32;2.00;;;0.30;;
58637;SDS011;54976;51.510;7.522;2023-04-01T04:06:33;0.65;;;0.22;;
58637;SDS011;54976;51.510;7.522;2023-04-01T04:09:33;1.65;;;0.30;;
58637;SDS011;54976;51.510;7.522;2023-04-01T04:12:34;1.65;;;0.40;;
58637;SDS011;54976;51.510;7.522;2023-04-01T04:15:35;1.30;;;0.30;;
58637;SDS011;54976;51.510;7.522;2023-04-01T04:18:35;1.60;;;0.35;;
58637;SDS011;54976;51.510;7.522;2023-04-01T04:21:36;1.27;;;0.30;;
58637;SDS011;54976;51.510;7.522;2023-04-01T04:24:37;5.15;;;0.45;;
58637;SDS011;54976;51.510;7.522;2023-04-01T04:27:38;0.43;;;0.40;;
58637;SDS011;54976;51.510;7.522;2023-04-01T04:30:38;1.10;;;0.50;;
58637;SDS011;54976;51.510;7.522;2023-04-01T04:33:39;0.75;;;0.50;;
58637;SDS011;54976;51.510;7.522;2023-04-01T04:36:39;0.63;;;0.63;;
58637;SDS011;54976;51.510;7.522;2023-04-01T04:39:40;2.95;;;0.60;;
58637;SDS011;54976;51.510;7.522;2023-04-01T04:42:41;1.98;;;0.55;;
58637;SDS011;54976;51.510;7.522;2023-04-01T04:45:41;2.50;;;0.88;;
58637;SDS011;54976;51.510;7.522;2023-04-01T04:48:42;1.20;;;0.90;;
58637;SDS011;54976;51.510;7.522;2023-04-01T04:51:43;1.48;;;1.10;;
58637;SDS011;54976;51.510;7.522;2023-04-01T04:54:44;2.53;;;0.95;;
58637;SDS011;54976;51.510;7.522;2023-04-01T04:57:45;1.95;;;1.17;;
58637;SDS011;54976;51.510;7.522;2023-04-01T05:00:46;1.38;;;1.10;;
58637;SDS011;54976;51.510;7.522;2023-04-01T05:03:47;3.53;;;1.60;;
58637;SDS011;54976;51.510;7.522;2023-04-01T05:06:47;2.05;;;1.15;;
58637;SDS011;54976;51.510;7.522;2023-04-01T05:09:48;2.75;;;1.30;;
58637;SDS011;54976;51.510;7.522;2023-04-01T05:12:49;2.78;;;1.10;;
58637;SDS011;54976;51.510;7.522;2023-04-01T05:15:50;3.13;;;1.20;;
58637;SDS011;54976;51.510;7.522;2023-04-01T05:18:51;4.80;;;1.65;;
58637;SDS011;54976;51.510;7.522;2023-04-01T05:21:51;2.10;;;1.25;;
58637;SDS011;54976;51.510;7.522;2023-04-01T05:24:52;2.78;;;1.10;;
58637;SDS011;54976;51.510;7.522;2023-04-01T05:27:53;1.13;;;1.02;;
58637;SDS011;54976;51.510;7.522;2023-04-01T05:30:54;3.00;;;1.23;;
58637;SDS011;54976;51.510;7.522;2023-04-01T05:33:55;1.42;;;0.98;;
58637;SDS011;54976;51.510;7.522;2023-04-01T05:36:55;1.27;;;1.17;;
58637;SDS011;54976;51.510;7.522;2023-04-01T05:39:56;1.20;;;1.00;;
58637;SDS011;54976;51.510;7.522;2023-04-01T05:42:58;1.25;;;1.10;;
58637;SDS011;54976;51.510;7.522;2023-04-01T05:46:00;2.25;;;1.02;;
58637;SDS011;54976;51.510;7.522;2023-04-01T05:49:00;3.38;;;1.25;;
58637;SDS011;54976;51.510;7.522;2023-04-01T05:52:01;1.00;;;0.70;;
58637;SDS011;54976;51.510;7.522;2023-04-01T05:55:02;0.70;;;0.65;;
58637;SDS011;54976;51.510;7.522;2023-04-01T05:58:03;1.20;;;1.08;;
58637;SDS011;54976;51.510;7.522;2023-04-01T06:01:07;1.25;;;1.10;;
58637;SDS011;54976;51.510;7.522;2023-04-01T06:04:11;1.55;;;1.10;;
58637;SDS011;54976;51.510;7.522;2023-04-01T06:07:17;1.45;;;0.90;;
58637;SDS011;54976;51.510;7.522;2023-04-01T06:10:18;1.45;;;0.80;;
58637;SDS011;54976;51.510;7.522;2023-04-01T06:16:43;0.88;;;0.82;;
58637;SDS011;54976;51.510;7.522;2023-04-01T06:30:33;1.02;;;0.60;;
58637;SDS011;54976;51.510;7.522;2023-04-01T06:33:45;1.27;;;0.65;;
58637;SDS011;54976;51.510;7.522;2023-04-01T06:43:41;1.20;;;0.60;;
58637;SDS011;54976;51.510;7.522;2023-04-01T06:53:35;0.60;;;0.60;;
58637;SDS011;54976;51.510;7.522;2023-04-01T06:56:40;0.65;;;0.55;;
58637;SDS011;54976;51.510;7.522;2023-04-01T06:59:46;1.90;;;0.70;;
58637;SDS011;54976;51.510;7.522;2023-04-01T07:02:50;1.00;;;0.40;;
58637;SDS011;54976;51.510;7.522;2023-04-01T07:06:09;0.50;;;0.43;;
58637;SDS011;54976;51.510;7.522;2023-04-01T07:09:18;0.43;;;0.43;;
58637;SDS011;54976;51.510;7.522;2023-04-01T07:12:23;1.55;;;0.50;;
58637;SDS011;54976;51.510;7.522;2023-04-01T07:15:36;0.70;;;0.50;;
58637;SDS011;54976;51.510;7.522;2023-04-01T07:18:42;0.65;;;0.55;;
58637;SDS011;54976;51.510;7.522;2023-04-01T07:21:52;0.40;;;0.40;;
58637;SDS011;54976;51.510;7.522;2023-04-01T07:24:55;0.65;;;0.60;;
58637;SDS011;54976;51.510;7.522;2023-04-01T07:28:04;0.30;;;0.30;;
58637;SDS011;54976;51.510;7.522;2023-04-01T07:43:54;0.50;;;0.45;;
58637;SDS011;54976;51.510;7.522;2023-04-01T07:56:49;1.42;;;0.57;;
58637;SDS011;54976;51.510;7.522;2023-04-01T08:00:09;0.55;;;0.32;;
58637;SDS011;54976;51.510;7.522;2023-04-01T08:03:33;0.50;;;0.50;;
58637;SDS011;54976;51.510;7.522;2023-04-01T08:16:22;0.88;;;0.57;;
58637;SDS011;54976;51.510;7.522;2023-04-01T08:23:00;1.10;;;0.60;;
58637;SDS011;54976;51.510;7.522;2023-04-01T08:26:22;0.40;;;0.40;;
58637;SDS011;54976;51.510;7.522;2023-04-01T08:32:40;0.63;;;0.50;;
58637;SDS011;54976;51.510;7.522;2023-04-01T08:35:46;0.50;;;0.50;;
58637;SDS011;54976;51.510;7.522;2023-04-01T08:39:15;0.50;;;0.50;;
58637;SDS011;54976;51.510;7.522;2023-04-01T08:45:44;0.60;;;0.60;;
58637;SDS011;54976;51.510;7.522;2023-04-01T08:52:50;1.17;;;0.52;;
58637;SDS011;54976;51.510;7.522;2023-04-01T08:59:23;0.65;;;0.65;;
58637;SDS011;54976;51.510;7.522;2023-04-01T09:02:37;0.77;;;0.77;;
58637;SDS011;54976;51.510;7.522;2023-04-01T09:20:39;0.82;;;0.77;;
58637;SDS011;54976;51.510;7.522;2023-04-01T09:24:18;1.25;;;0.60;;
58637;SDS011;54976;51.510;7.522;2023-04-01T09:27:29;1.40;;;0.80;;
58637;SDS011;54976;51.510;7.522;2023-04-01T09:30:33;1.75;;;1.10;;
58637;SDS011;54976;51.510;7.522;2023-04-01T09:34:03;1.73;;;1.00;;
58637;SDS011;54976;51.510;7.522;2023-04-01T09:37:21;1.98;;;1.42;;
58637;SDS011;54976;51.510;7.522;2023-04-01T09:47:49;2.03;;;1.42;;
58637;SDS011;54976;51.510;7.522;2023-04-01T09:53:48;2.13;;;1.65;;
58637;SDS011;54976;51.510;7.522;2023-04-01T10:04:16;3.20;;;2.25;;
58637;SDS011;54976;51.510;7.522;2023-04-01T10:27:27;4.68;;;4.13;;
58637;SDS011;54976;51.510;7.522;2023-04-01T10:34:10;3.90;;;3.20;;
58637;SDS011;54976;51.510;7.522;2023-04-01T10:41:34;5.97;;;3.35;;
58637;SDS011;54976;51.510;7.522;2023-04-01T10:55:19;4.38;;;3.97;;
58637;SDS011;54976;51.510;7.522;2023-04-01T11:09:14;4.20;;;3.47;;
58637;SDS011;54976;51.510;7.522;2023-04-01T11:29:44;5.70;;;3.80;;
58637;SDS011;54976;51.510;7.522;2023-04-01T11:43:34;3.08;;;2.83;;
58637;SDS011;54976;51.510;7.522;2023-04-01T11:50:24;4.07;;;3.42;;
58637;SDS011;54976;51.510;7.522;2023-04-01T12:03:38;3.70;;;2.78;;
58637;SDS011;54976;51.510;7.522;2023-04-01T12:10:20;4.25;;;3.25;;
58637;SDS011;54976;51.510;7.522;2023-04-01T12:39:51;4.43;;;3.33;;
58637;SDS011;54976;51.510;7.522;2023-04-01T12:50:19;4.78;;;2.80;;
58637;SDS011;54976;51.510;7.522;2023-04-01T13:00:03;4.10;;;2.42;;
58637;SDS011;54976;51.510;7.522;2023-04-01T13:16:31;5.80;;;4.00;;
58637;SDS011;54976;51.510;7.522;2023-04-01T13:19:43;5.22;;;3.75;;
58637;SDS011;54976;51.510;7.522;2023-04-01T13:33:00;4.38;;;3.83;;
58637;SDS011;54976;51.510;7.522;2023-04-01T13:39:35;7.00;;;4.60;;
58637;SDS011;54976;51.510;7.522;2023-04-01T14:12:18;4.88;;;4.38;;
58637;SDS011;54976;51.510;7.522;2023-04-01T14:35:33;6.20;;;5.38;;
58637;SDS011;54976;51.510;7.522;2023-04-01T14:38:47;7.20;;;5.75;;
58637;SDS011;54976;51.510;7.522;2023-04-01T14:51:51;4.97;;;4.47;;
58637;SDS011;54976;51.510;7.522;2023-04-01T14:54:53;6.53;;;4.05;;
58637;SDS011;54976;51.510;7.522;2023-04-01T14:58:38;5.07;;;4.43;;
58637;SDS011;54976;51.510;7.522;2023-04-01T15:11:44;8.38;;;5.03;;
58637;SDS011;54976;51.510;7.522;2023-04-01T15:31:50;5.65;;;4.70;;
58637;SDS011;54976;51.510;7.522;2023-04-01T15:45:31;10.15;;;7.53;;
58637;SDS011;54976;51.510;7.522;2023-04-01T15:52:02;10.55;;;8.30;;
58637;SDS011;54976;51.510;7.522;2023-04-01T15:58:32;12.77;;;9.05;;
58637;SDS011;54976;51.510;7.522;2023-04-01T16:05:25;14.93;;;10.43;;
58637;SDS011;54976;51.510;7.522;2023-04-01T16:28:34;17.48;;;12.07;;
58637;SDS011;54976;51.510;7.522;2023-04-01T16:42:28;15.02;;;10.40;;
58637;SDS011;54976;51.510;7.522;2023-04-01T16:52:17;11.80;;;8.20;;
58637;SDS011;54976;51.510;7.522;2023-04-01T16:55:42;13.43;;;7.25;;
58637;SDS011;54976;51.510;7.522;2023-04-01T17:05:11;12.73;;;8.60;;
58637;SDS011;54976;51.510;7.522;2023-04-01T17:11:31;12.05;;;8.38;;
